Terminal Aerodrome Forecast
Issued by NWS

Home | Current Version | Previous Version | Text Only | Print | Product List | Glossary On
Versions: 1 2 3 4 5 6 7 8 9 10 11 12
441
FTUS45 KTFX 241724
TAFLWT
TAF
KLWT 241724Z 2418/2518 29022G32KT P6SM SCT080 BKN100
     FM242200 28030G41KT P6SM FEW110 SCT250
     FM250500 28022G32KT P6SM SCT070 BKN150
     FM251000 29019G28KT P6SM -SHRA SCT020 BKN030
      TEMPO 2512/2516 4SM -SHRA OVC015=

USA.gov is the U.S. government's official web portal to all federal, state and local government web resources and services.